Time;durP1;ratioP1;P1;durP2;ratioP2;P2;SDS_P1;SDS_P2;PMS_P1;PMS_P2;Temp;Humidity;BMP_temperature;BMP_pressure;BME280_temperature;BME280_humidity;BME280_pressure;Samples;Min_cycle;Max_cycle;Signal;HPM_P1;HPM_P2
2022/08/25 00:02:00;;;;;;;0.40;0.30;;;;;;;20.98;100.00;95057.75;5091854;28;20466;-59
2022/08/25 00:04:30;;;;;;;0.60;0.40;;;;;;;20.81;100.00;95108.09;5092012;28;20420;-59
2022/08/25 00:07:01;;;;;;;0.50;0.30;;;;;;;20.25;100.00;95055.94;5091865;28;20421;-59
2022/08/25 00:09:32;;;;;;;0.50;0.40;;;;;;;21.14;100.00;95123.34;5091443;28;20504;-59
2022/08/25 00:12:00;;;;;;;0.40;0.20;;;;;;;21.39;100.00;95124.84;5091932;28;20449;-59
2022/08/25 00:14:33;;;;;;;0.40;0.30;;;;;;;20.96;100.00;95133.56;5091591;28;20511;-59
2022/08/25 00:17:03;;;;;;;6.83;0.40;;;;;;;20.65;100.00;95171.03;5091526;28;20460;-59
2022/08/25 00:19:35;;;;;;;0.40;0.20;;;;;;;20.63;100.00;95166.00;5091300;28;20507;-59
2022/08/25 00:22:04;;;;;;;0.60;0.30;;;;;;;20.53;100.00;95071.41;5091499;28;21073;-59
2022/08/25 00:24:32;;;;;;;0.50;0.40;;;;;;;20.71;100.00;95135.47;5091372;28;20464;-59
2022/08/25 00:27:01;;;;;;;0.50;0.50;;;;;;;20.99;100.00;95137.47;5091462;28;20452;-59
2022/08/25 00:29:32;;;;;;;0.60;0.37;;;;;;;21.35;100.00;95132.06;5091530;28;20563;-58
2022/08/25 00:32:01;;;;;;;0.80;0.60;;;;;;;20.72;100.00;95123.56;5094986;28;20511;-58
2022/08/25 00:34:33;;;;;;;0.50;0.50;;;;;;;20.73;100.00;95113.59;5094908;28;20424;-58
2022/08/25 00:37:03;;;;;;;1.03;1.00;;;;;;;20.26;100.00;95107.88;5094947;28;20458;-57
2022/08/25 00:39:32;;;;;;;0.87;0.63;;;;;;;20.00;100.00;95099.28;5095353;28;20459;-57
2022/08/25 00:42:00;;;;;;;5.90;0.70;;;;;;;19.80;100.00;95082.09;5095008;28;20479;-57
2022/08/25 00:44:32;;;;;;;1.13;0.50;;;;;;;19.84;100.00;95076.81;5094988;28;20421;-57
2022/08/25 00:47:04;;;;;;;0.50;0.30;;;;;;;19.76;100.00;95083.09;5094871;28;20507;-57
2022/08/25 00:49:36;;;;;;;0.50;0.40;;;;;;;19.65;100.00;95082.72;5095025;28;20555;-57
2022/08/25 00:52:09;;;;;;;0.50;0.50;;;;;;;19.92;100.00;95090.19;5094827;28;20429;-57
2022/08/25 00:54:40;;;;;;;0.60;0.53;;;;;;;20.42;100.00;95081.84;5094718;28;20809;-57
2022/08/25 00:57:12;;;;;;;0.50;0.37;;;;;;;20.62;100.00;95086.31;5094625;28;20523;-57
2022/08/25 00:59:43;;;;;;;0.60;0.60;;;;;;;21.09;100.00;95075.84;5094879;28;20873;-57
2022/08/25 01:02:14;;;;;;;0.50;0.33;;;;;;;21.11;100.00;95038.56;5094901;28;20421;-57
2022/08/25 01:04:44;;;;;;;0.77;0.53;;;;;;;21.26;100.00;95075.56;5094567;28;20428;-57
2022/08/25 01:07:19;;;;;;;0.50;0.33;;;;;;;20.60;100.00;95082.41;5094796;28;20428;-57
2022/08/25 01:09:49;;;;;;;0.43;0.40;;;;;;;20.61;100.00;95063.22;5094374;28;21030;-57
2022/08/25 01:12:18;;;;;;;1.30;1.20;;;;;;;21.05;100.00;95076.84;5094365;28;20979;-57
2022/08/25 01:14:49;;;;;;;0.57;0.40;;;;;;;21.18;100.00;95065.72;5094659;28;20448;-57
2022/08/25 01:17:19;;;;;;;0.60;0.40;;;;;;;21.08;100.00;95057.31;5094278;28;20539;-57
2022/08/25 01:19:48;;;;;;;0.40;0.30;;;;;;;21.37;100.00;95068.56;5094110;28;20903;-58
2022/08/25 01:22:17;;;;;;;0.50;0.40;;;;;;;21.39;100.00;95071.72;5094473;28;20453;-58
2022/08/25 01:24:54;;;;;;;0.50;0.40;;;;;;;21.45;100.00;95066.84;5094438;28;20496;-58
2022/08/25 01:27:23;;;;;;;5.80;0.60;;;;;;;21.38;100.00;95072.81;5094164;28;20455;-58
2022/08/25 01:29:51;;;;;;;0.67;0.40;;;;;;;21.41;100.00;95085.63;5094106;28;20558;-57
2022/08/25 01:32:20;;;;;;;0.40;0.20;;;;;;;21.21;100.00;95043.47;5094310;28;20432;-56
2022/08/25 01:34:48;;;;;;;0.40;0.27;;;;;;;21.64;100.00;95083.16;5094291;28;20455;-56
2022/08/25 01:37:20;;;;;;;0.50;0.40;;;;;;;21.65;100.00;95079.34;5094087;28;20428;-56
2022/08/25 01:39:49;;;;;;;0.40;0.30;;;;;;;21.54;100.00;95083.66;5094067;28;20444;-57
2022/08/25 01:42:32;;;;;;;0.67;0.57;;;;;;;21.11;100.00;95081.69;5093584;28;20426;-57
2022/08/25 01:45:01;;;;;;;1.07;0.97;;;;;;;20.80;100.00;95070.69;5094097;28;20482;-57
2022/08/25 01:47:30;;;;;;;0.60;0.60;;;;;;;20.41;100.00;95076.81;5094056;28;20467;-57
2022/08/25 01:49:59;;;;;;;1.43;1.43;;;;;;;20.39;100.00;95079.81;5093569;28;20508;-57
2022/08/25 01:52:34;;;;;;;2.20;0.93;;;;;;;20.22;100.00;95088.09;5093646;28;20459;-56
2022/08/25 01:55:03;;;;;;;1.10;1.10;;;;;;;20.32;100.00;95086.88;5093808;28;20451;-57
2022/08/25 01:57:31;;;;;;;1.83;1.73;;;;;;;20.32;100.00;95092.25;5093515;28;20507;-57
2022/08/25 02:00:00;;;;;;;0.57;0.40;;;;;;;20.47;100.00;95086.22;5093402;28;20433;-57
2022/08/25 02:02:29;;;;;;;1.13;0.60;;;;;;;20.60;100.00;95082.41;5093943;28;20498;-56
2022/08/25 02:05:00;;;;;;;1.40;1.17;;;;;;;20.39;100.00;95079.81;5093708;28;20846;-57
2022/08/25 02:07:30;;;;;;;2.20;0.40;;;;;;;20.73;100.00;95083.97;5093646;28;20809;-57
2022/08/25 02:09:58;;;;;;;0.50;0.50;;;;;;;20.89;100.00;95077.56;5093205;28;20515;-57
2022/08/25 02:12:31;;;;;;;0.50;0.50;;;;;;;20.86;100.00;95080.13;5093283;28;20429;-56
2022/08/25 02:15:00;;;;;;;0.60;0.40;;;;;;;20.50;100.00;95080.16;5093103;28;20929;-56
2022/08/25 02:17:29;;;;;;;0.90;0.90;;;;;;;20.48;100.00;95074.34;5093175;28;20424;-56
2022/08/25 02:19:58;;;;;;;1.43;0.37;;;;;;;20.56;100.00;95093.06;5092980;28;21026;-56
2022/08/25 02:22:27;;;;;;;3.67;0.70;;;;;;;20.67;100.00;95088.78;5093000;28;20427;-56
2022/08/25 02:24:58;;;;;;;0.40;0.30;;;;;;;21.20;100.00;95090.41;5093328;28;20452;-56
2022/08/25 02:27:27;;;;;;;0.40;0.30;;;;;;;21.53;100.00;95096.34;5092943;28;20460;-57
2022/08/25 02:29:55;;;;;;;0.40;0.30;;;;;;;21.60;100.00;95103.88;5092906;28;20503;-57
2022/08/25 02:32:24;;;;;;;0.40;0.30;;;;;;;21.81;100.00;95111.75;5093151;28;20479;-57
2022/08/25 02:34:52;;;;;;;0.60;0.60;;;;;;;21.74;100.00;95127.75;5092645;28;20976;-56
2022/08/25 02:37:20;;;;;;;0.83;0.30;;;;;;;21.33;100.00;95132.38;5092619;28;20950;-57
2022/08/25 02:39:49;;;;;;;0.40;0.30;;;;;;;21.43;100.00;95131.91;5092470;28;20428;-57
2022/08/25 02:42:20;;;;;;;0.50;0.40;;;;;;;21.78;100.00;95131.34;5092491;28;20471;-56
2022/08/25 02:44:49;;;;;;;0.40;0.20;;;;;;;21.78;100.00;95134.78;5092338;28;20432;-56
2022/08/25 02:47:17;;;;;;;0.40;0.20;;;;;;;21.73;100.00;95137.75;5092159;28;20472;-57
2022/08/25 02:49:55;;;;;;;1.43;0.80;;;;;;;21.34;100.00;95117.78;5092274;28;20490;-56
2022/08/25 02:52:24;;;;;;;0.50;0.40;;;;;;;20.90;100.00;95103.34;5091959;28;20425;-56
2022/08/25 02:54:52;;;;;;;0.47;0.37;;;;;;;20.49;100.00;95102.84;5091980;28;20813;-56
2022/08/25 02:57:22;;;;;;;0.60;0.40;;;;;;;20.47;100.00;95111.22;5092188;28;20515;-56
2022/08/25 02:59:51;;;;;;;0.50;0.40;;;;;;;20.66;100.00;95113.38;5092473;28;20431;-57
2022/08/25 03:02:19;;;;;;;0.60;0.50;;;;;;;20.62;100.00;95097.09;5092468;28;20839;-57
2022/08/25 03:04:48;;;;;;;0.70;0.37;;;;;;;20.56;100.00;95097.66;5092394;28;20460;-57
2022/08/25 03:07:16;;;;;;;0.50;0.47;;;;;;;20.83;100.00;95096.97;5091491;28;20440;-57
2022/08/25 03:09:45;;;;;;;4.60;0.40;;;;;;;21.23;100.00;95084.34;5091812;28;20511;-57
2022/08/25 03:12:13;;;;;;;0.60;0.40;;;;;;;21.35;100.00;95076.19;5092162;28;20416;-57
2022/08/25 03:14:43;;;;;;;0.40;0.20;;;;;;;21.02;100.00;95072.94;5091656;28;20519;-57
2022/08/25 03:17:14;;;;;;;0.87;0.60;;;;;;;21.11;100.00;95073.59;5091910;28;20436;-57
2022/08/25 03:19:42;;;;;;;0.47;0.30;;;;;;;21.23;100.00;95078.16;5091196;28;20583;-57
2022/08/25 03:22:11;;;;;;;0.50;0.40;;;;;;;21.49;100.00;95070.44;5091491;28;20428;-57
2022/08/25 03:24:39;;;;;;;0.50;0.30;;;;;;;21.50;100.00;95075.47;5092145;28;20965;-57
2022/08/25 03:27:07;;;;;;;0.80;0.77;;;;;;;20.97;100.00;95067.78;5092088;28;20452;-57
2022/08/25 03:29:35;;;;;;;0.50;0.30;;;;;;;20.71;100.00;95067.38;5091738;28;20785;-57
2022/08/25 03:32:05;;;;;;;0.50;0.40;;;;;;;21.19;100.00;95067.28;5091573;28;20508;-57
2022/08/25 03:34:34;;;;;;;0.50;0.40;;;;;;;21.16;100.00;95032.13;5092053;28;20420;-57
2022/08/25 03:37:03;;;;;;;0.60;0.60;;;;;;;20.84;100.00;95061.63;5091959;28;20480;-57
2022/08/25 03:39:31;;;;;;;0.53;0.53;;;;;;;21.01;100.00;95059.78;5091571;28;20439;-57
2022/08/25 03:42:03;;;;;;;0.77;0.77;;;;;;;21.32;100.00;95068.03;5091477;28;20502;-56
2022/08/25 03:44:32;;;;;;;0.40;0.40;;;;;;;21.16;100.00;95067.97;5091215;28;20912;-57
2022/08/25 03:47:00;;;;;;;0.77;0.77;;;;;;;21.02;100.00;95055.97;5091160;28;20869;-56
2022/08/25 03:49:31;;;;;;;0.70;0.40;;;;;;;21.03;100.00;95057.53;5091396;28;20447;-57
2022/08/25 03:52:01;;;;;;;2.30;1.13;;;;;;;20.64;100.00;95059.06;5091658;28;20513;-58
2022/08/25 03:54:29;;;;;;;0.90;0.80;;;;;;;20.16;100.00;95057.91;5091476;28;20456;-57
2022/08/25 03:56:58;;;;;;;0.77;0.60;;;;;;;20.26;100.00;95059.44;5091837;28;20503;-57
2022/08/25 03:59:27;;;;;;;0.40;0.30;;;;;;;20.23;100.00;95054.72;5091443;28;20472;-58
2022/08/25 04:01:56;;;;;;;0.50;0.50;;;;;;;20.27;100.00;95053.69;5091716;28;20448;-53
2022/08/25 04:04:24;;;;;;;1.03;1.00;;;;;;;20.36;100.00;95053.59;5092753;28;20434;-54
2022/08/25 04:06:54;;;;;;;0.40;0.30;;;;;;;20.22;100.00;95039.63;5095489;28;20464;-54
2022/08/25 04:09:22;;;;;;;0.60;0.60;;;;;;;19.91;100.00;95048.25;5095429;28;20491;-54
2022/08/25 04:11:52;;;;;;;2.53;0.90;;;;;;;19.87;100.00;95068.88;5095322;28;20992;-53
2022/08/25 04:14:22;;;;;;;0.47;0.33;;;;;;;20.03;100.00;95048.28;5095190;28;20424;-53
2022/08/25 04:16:51;;;;;;;3.40;0.63;;;;;;;20.69;100.00;95048.06;5095549;28;20463;-53
2022/08/25 04:19:20;;;;;;;0.63;0.50;;;;;;;21.11;100.00;95038.56;5095215;28;20495;-53
2022/08/25 04:21:50;;;;;;;0.70;0.40;;;;;;;20.76;100.00;95034.81;5095020;28;20889;-53
2022/08/25 04:24:25;;;;;;;0.63;0.57;;;;;;;21.14;100.00;95045.97;5095180;28;20458;-53
2022/08/25 04:26:53;;;;;;;0.40;0.30;;;;;;;21.08;100.00;95043.84;5095230;28;20515;-53
2022/08/25 04:29:24;;;;;;;0.50;0.30;;;;;;;20.45;100.00;95040.78;5095162;28;20435;-53
2022/08/25 04:31:54;;;;;;;0.60;0.50;;;;;;;20.82;100.00;95038.84;5095122;28;20511;-52
2022/08/25 04:34:25;;;;;;;0.70;0.70;;;;;;;20.72;100.00;95044.72;5094967;28;20429;-53
2022/08/25 04:37:01;;;;;;;0.40;0.30;;;;;;;21.20;100.00;95038.44;5094935;28;20420;-53
2022/08/25 04:39:31;;;;;;;0.40;0.30;;;;;;;20.73;100.00;94992.38;5094827;28;21027;-52
2022/08/25 04:42:00;;;;;;;0.50;0.30;;;;;;;21.18;100.00;95046.84;5095151;28;20515;-53
2022/08/25 04:44:29;;;;;;;0.50;0.30;;;;;;;20.90;100.00;95046.78;5095082;28;20493;-52
2022/08/25 04:46:58;;;;;;;0.63;0.50;;;;;;;20.73;100.00;95012.03;5094734;28;20452;-53
2022/08/25 04:49:27;;;;;;;35.23;1.03;;;;;;;21.07;100.00;95045.78;5094581;28;20530;-53
2022/08/25 04:51:56;;;;;;;0.50;0.50;;;;;;;20.94;100.00;95038.81;5094830;28;20547;-53
2022/08/25 04:54:25;;;;;;;0.50;0.50;;;;;;;20.77;100.00;95049.84;5094559;28;20435;-53
2022/08/25 04:56:55;;;;;;;0.50;0.40;;;;;;;20.79;100.00;95034.94;5094265;28;20486;-52
2022/08/25 04:59:26;;;;;;;0.60;0.60;;;;;;;20.62;100.00;95032.47;5094950;28;20428;-52
2022/08/25 05:02:00;;;;;;;0.57;0.47;;;;;;;20.55;100.00;95026.06;5094426;28;20452;-52
2022/08/25 05:04:30;;;;;;;0.40;0.30;;;;;;;20.68;100.00;95028.44;5094675;28;20424;-53
2022/08/25 05:06:58;;;;;;;0.40;0.30;;;;;;;21.05;100.00;95026.41;5094542;28;20439;-52
2022/08/25 05:09:27;;;;;;;0.40;0.20;;;;;;;20.84;100.00;95015.03;5094437;28;20467;-54
2022/08/25 05:12:01;;;;;;;1.30;1.20;;;;;;;20.32;100.00;94936.16;5094409;28;20987;-53
2022/08/25 05:14:30;;;;;;;0.40;0.20;;;;;;;20.29;100.00;94961.09;5094476;28;20431;-53
2022/08/25 05:16:59;;;;;;;0.50;0.50;;;;;;;20.43;100.00;94999.19;5093829;28;20863;-53
2022/08/25 05:19:28;;;;;;;0.50;0.40;;;;;;;20.65;100.00;95012.16;5094142;28;20513;-54
2022/08/25 05:21:56;;;;;;;0.50;0.30;;;;;;;20.69;100.00;95016.53;5094083;28;20459;-54
2022/08/25 05:24:26;;;;;;;0.40;0.30;;;;;;;20.74;100.00;95010.91;5094513;28;20817;-54
2022/08/25 05:26:55;;;;;;;0.50;0.40;;;;;;;20.69;100.00;95003.06;5093929;28;20416;-53
2022/08/25 05:29:25;;;;;;;1.23;0.80;;;;;;;20.41;100.00;95004.91;5094179;28;20547;-53
2022/08/25 05:31:54;;;;;;;0.50;0.40;;;;;;;20.54;100.00;95005.69;5093718;28;20525;-52
2022/08/25 05:34:23;;;;;;;0.50;0.50;;;;;;;20.75;100.00;94998.22;5093880;28;20425;-54
2022/08/25 05:36:52;;;;;;;0.60;0.60;;;;;;;20.59;100.00;94989.28;5093714;28;20884;-55
2022/08/25 05:39:20;;;;;;;0.60;0.40;;;;;;;20.74;100.00;95002.06;5093776;28;20467;-54
2022/08/25 05:41:49;;;;;;;4.43;1.57;;;;;;;21.24;100.00;94999.66;5093817;28;20517;-54
2022/08/25 05:44:17;;;;;;;0.50;0.37;;;;;;;21.15;100.00;94996.31;5093496;28;20909;-54
2022/08/25 05:46:50;;;;;;;5.50;3.00;;;;;;;21.38;100.00;94989.25;5093634;28;20478;-53
2022/08/25 05:49:19;;;;;;;0.43;0.27;;;;;;;21.51;100.00;94981.88;5093709;28;20500;-53
2022/08/25 05:51:47;;;;;;;0.40;0.30;;;;;;;22.00;100.00;94982.38;5093191;28;20507;-52
2022/08/25 05:54:16;;;;;;;0.50;0.40;;;;;;;22.18;100.00;94991.69;5093325;28;20483;-52
2022/08/25 05:56:45;;;;;;;1.07;1.03;;;;;;;22.31;100.00;94968.06;5093297;28;20475;-54
2022/08/25 05:59:13;;;;;;;0.40;0.40;;;;;;;22.10;100.00;94988.03;5093536;28;20456;-54
2022/08/25 06:04:29;;;;;;;1.70;0.40;;;;;;;22.30;100.00;94967.25;5093117;28;20899;-53
2022/08/25 06:06:57;;;;;;;0.50;0.40;;;;;;;22.39;100.00;94959.75;5093182;28;20512;-54
2022/08/25 06:09:26;;;;;;;0.73;0.57;;;;;;;23.07;100.00;94959.28;5093098;28;20941;-54
2022/08/25 06:11:55;;;;;;;0.50;0.33;;;;;;;22.99;100.00;94973.78;5093187;28;20555;-55
2022/08/25 06:14:24;;;;;;;1.37;0.60;;;;;;;22.72;100.00;94970.91;5092828;28;20519;-54
2022/08/25 06:16:52;;;;;;;0.77;0.77;;;;;;;22.82;100.00;94976.91;5092919;28;20943;-54
2022/08/25 06:19:22;;;;;;;2.20;0.87;;;;;;;23.27;100.00;94971.66;5092536;28;20564;-53
2022/08/25 06:21:55;;;;;;;0.70;0.30;;;;;;;24.11;100.00;94968.91;5092760;28;20423;-54
2022/08/25 06:24:25;;;;;;;0.40;0.30;;;;;;;24.42;100.00;94963.97;5092456;28;20436;-54
2022/08/25 06:26:54;;;;;;;0.50;0.30;;;;;;;24.45;100.00;94914.47;5093060;28;20424;-54
2022/08/25 06:29:23;;;;;;;0.40;0.20;;;;;;;25.17;100.00;94965.75;5092856;28;20477;-53
2022/08/25 06:31:51;;;;;;;0.50;0.30;;;;;;;25.43;100.00;94967.56;5092508;28;20558;-54
2022/08/25 06:34:20;;;;;;;0.60;0.50;;;;;;;26.21;100.00;94967.19;5092401;28;20951;-54
2022/08/25 06:36:51;;;;;;;1.47;0.60;;;;;;;26.46;100.00;94961.97;5092655;28;20982;-54
2022/08/25 06:39:22;;;;;;;0.50;0.50;;;;;;;26.10;100.00;94958.16;5092976;28;20519;-55
2022/08/25 06:41:52;;;;;;;0.43;0.40;;;;;;;26.54;100.00;94952.66;5092590;28;20467;-55
2022/08/25 06:44:21;;;;;;;0.57;0.50;;;;;;;26.64;100.00;94962.06;5092504;28;20464;-54
2022/08/25 06:46:50;;;;;;;2.07;1.90;;;;;;;26.83;100.00;94959.06;5092507;28;20589;-55
2022/08/25 06:49:19;;;;;;;0.43;0.40;;;;;;;27.24;100.00;94955.00;5092585;28;20463;-54
2022/08/25 06:51:48;;;;;;;0.40;0.20;;;;;;;27.34;100.00;94861.72;5092253;28;20880;-54
2022/08/25 06:54:16;;;;;;;0.40;0.30;;;;;;;27.91;100.00;94948.91;5092438;28;20932;-54
2022/08/25 06:56:46;;;;;;;0.40;0.33;;;;;;;28.36;100.00;94948.16;5092462;28;20501;-53
2022/08/25 06:59:17;;;;;;;0.40;0.30;;;;;;;28.46;100.00;94943.88;5092465;28;20460;-53
2022/08/25 07:01:46;;;;;;;0.40;0.40;;;;;;;28.39;100.00;94871.03;5092536;28;20528;-53
2022/08/25 07:04:17;;;;;;;0.47;0.37;;;;;;;29.14;100.00;94932.41;5092108;28;20928;-53
2022/08/25 07:06:45;;;;;;;0.47;0.47;;;;;;;29.34;100.00;94932.72;5092019;28;20456;-53
2022/08/25 07:09:15;;;;;;;0.40;0.30;;;;;;;29.18;100.00;94926.91;5092034;28;20456;-53
2022/08/25 07:11:44;;;;;;;0.73;0.30;;;;;;;29.26;100.00;94928.47;5091955;28;20499;-52
2022/08/25 07:14:16;;;;;;;0.50;0.50;;;;;;;29.08;100.00;94922.28;5092276;28;20898;-53
2022/08/25 07:16:45;;;;;;;0.43;0.40;;;;;;;29.48;100.00;94921.69;5092047;28;20460;-52
2022/08/25 07:19:19;;;;;;;0.53;0.47;;;;;;;29.55;100.00;94910.72;5091854;28;20852;-53
2022/08/25 07:21:51;;;;;;;0.30;0.27;;;;;;;29.49;100.00;94942.38;5092246;28;20451;-53
2022/08/25 07:24:20;;;;;;;0.37;0.30;;;;;;;29.37;100.00;94921.00;5091886;28;20512;-53
2022/08/25 07:26:49;;;;;;;0.60;0.60;;;;;;;28.99;100.00;94911.00;5091896;28;20436;-53
2022/08/25 07:29:21;;;;;;;0.50;0.40;;;;;;;29.12;100.00;94915.63;5092134;28;20429;-53
2022/08/25 07:32:10;;;;;;;0.40;0.40;;;;;;;29.12;100.00;94914.88;5091698;28;20432;-53
2022/08/25 07:37:24;;;;;;;1.53;1.43;;;;;;;29.37;100.00;94921.00;5091862;28;20430;-52
2022/08/25 07:40:16;;;;;;;4.20;0.70;;;;;;;29.81;100.00;94917.63;5091378;28;20423;-53
2022/08/25 07:42:45;;;;;;;0.40;0.30;;;;;;;30.15;93.10;94902.91;5092073;28;20530;-53
2022/08/25 07:45:16;;;;;;;0.30;0.20;;;;;;;30.48;97.97;94912.38;5092052;28;20427;-52
2022/08/25 07:47:49;;;;;;;0.40;0.40;;;;;;;30.72;97.30;94914.06;5092066;28;20432;-50
2022/08/25 07:50:19;;;;;;;0.30;0.20;;;;;;;30.78;91.56;94909.72;5091777;28;20433;-49
2022/08/25 07:52:47;;;;;;;1.43;0.40;;;;;;;31.61;85.48;94897.34;5091582;28;20517;-49
2022/08/25 07:55:23;;;;;;;0.50;0.50;;;;;;;31.36;91.80;94905.88;5091726;28;20423;-49
2022/08/25 07:57:51;;;;;;;0.70;0.70;;;;;;;31.48;84.69;94907.31;5092282;28;20502;-49
2022/08/25 08:00:28;;;;;;;0.40;0.30;;;;;;;32.22;74.85;94903.47;5091614;28;20426;-50
2022/08/25 08:02:57;;;;;;;0.40;0.33;;;;;;;32.96;70.66;94906.81;5091578;28;20436;-49
2022/08/25 08:05:27;;;;;;;4.20;0.63;;;;;;;32.93;62.52;94894.72;5091477;28;20894;-50
2022/08/25 08:07:56;;;;;;;0.73;0.70;;;;;;;33.52;59.54;94900.16;5091627;28;20945;-50
2022/08/25 08:10:25;;;;;;;0.40;0.40;;;;;;;33.59;55.61;94858.81;5091500;28;20522;-50
2022/08/25 08:13:14;;;;;;;0.40;0.30;;;;;;;34.08;57.68;94900.09;5091404;28;20479;-50
2022/08/25 08:15:47;;;;;;;0.70;0.70;;;;;;;33.42;66.17;94895.66;5091578;28;20519;-49
2022/08/25 08:18:16;;;;;;;0.80;0.57;;;;;;;33.93;54.81;94902.38;5091269;28;21080;-50
2022/08/25 08:20:47;;;;;;;1.07;0.97;;;;;;;34.11;53.28;94899.22;5091659;28;20435;-50
2022/08/25 08:23:17;;;;;;;0.40;0.40;;;;;;;33.93;52.01;94909.88;5091523;28;20439;-54
2022/08/25 08:25:45;;;;;;;0.83;0.83;;;;;;;33.68;48.16;94902.19;5091516;28;20428;-54
2022/08/25 08:28:13;;;;;;;1.63;0.47;;;;;;;33.73;50.41;94899.69;5091535;28;21132;-54
2022/08/25 08:30:43;;;;;;;0.50;0.40;;;;;;;33.76;49.54;94907.09;5091401;28;20436;-53
2022/08/25 08:33:24;;;;;;;0.60;0.40;;;;;;;33.66;47.95;94866.88;5091211;28;20479;-53
2022/08/25 08:35:59;;;;;;;2.57;0.80;;;;;;;33.10;47.53;94890.84;5091588;28;20900;-54
2022/08/25 08:38:33;;;;;;;0.50;0.43;;;;;;;33.80;56.67;94907.78;5091357;28;20438;-54
2022/08/25 08:44:42;;;;;;;5.10;0.70;;;;;;;34.02;49.08;94904.53;5091202;28;20438;-54
2022/08/25 08:47:22;;;;;;;0.87;0.70;;;;;;;34.75;46.62;94896.41;5091311;28;20442;-54
2022/08/25 08:50:02;;;;;;;2.00;1.90;;;;;;;34.61;44.12;94887.78;5091304;28;20530;-55
2022/08/25 08:52:40;;;;;;;0.50;0.37;;;;;;;34.73;44.27;94895.31;5093883;28;20428;-55
2022/08/25 08:55:19;;;;;;;4.23;1.07;;;;;;;33.44;41.33;94871.31;5094904;28;20432;-54
2022/08/25 08:57:51;;;;;;;12.53;1.10;;;;;;;31.91;45.81;94845.19;5094808;28;20273;-53
2022/08/25 09:00:22;;;;;;;0.77;0.77;;;;;;;32.91;54.40;94875.16;5094654;28;20978;-53
2022/08/25 09:02:56;;;;;;;1.47;1.47;;;;;;;33.00;55.83;94883.59;5094745;28;20459;-54
2022/08/25 09:05:29;;;;;;;7.03;0.60;;;;;;;33.47;50.29;94884.16;5094993;28;20438;-53
2022/08/25 09:08:05;;;;;;;0.40;0.30;;;;;;;33.41;52.70;94877.63;5094878;28;20423;-59
2022/08/25 09:10:45;;;;;;;0.30;0.30;;;;;;;34.15;47.86;94867.69;5094662;28;20434;-59
2022/08/25 09:13:24;;;;;;;6.13;1.07;;;;;;;34.17;47.83;94867.25;5094707;28;20213;-60
2022/08/25 09:19:14;;;;;;;0.40;0.30;;;;;;;34.52;44.59;94871.84;5094398;28;20222;-60
2022/08/25 09:21:57;;;;;;;8.57;0.70;;;;;;;34.29;43.65;94870.06;5094325;28;20511;-60
2022/08/25 09:24:41;;;;;;;0.93;0.50;;;;;;;34.57;41.86;94857.56;5094276;28;20254;-59
2022/08/25 09:27:22;;;;;;;4.67;1.40;;;;;;;35.02;40.09;94858.25;5094165;28;20194;-60
2022/08/25 09:30:01;;;;;;;10.70;1.13;;;;;;;35.11;37.92;94865.94;5094218;28;20273;-61
2022/08/25 09:32:35;;;;;;;0.80;0.63;;;;;;;34.90;38.70;94856.25;5094458;28;20191;-60
2022/08/25 09:35:06;;;;;;;0.77;0.77;;;;;;;35.85;40.10;94860.91;5094207;28;20613;-60
2022/08/25 09:37:36;;;;;;;0.50;0.50;;;;;;;35.53;39.10;94850.09;5094275;28;20217;-60
2022/08/25 09:40:06;;;;;;;0.63;0.57;;;;;;;35.71;38.14;94850.31;5094371;28;20244;-60
2022/08/25 09:42:48;;;;;;;1.17;0.70;;;;;;;35.65;36.40;94844.59;5093807;28;20186;-60
2022/08/25 09:45:30;;;;;;;3.40;0.70;;;;;;;35.02;42.29;94843.72;5093847;28;20267;-60
2022/08/25 09:47:58;;;;;;;0.50;0.50;;;;;;;34.97;42.29;94855.28;5093893;28;20511;-60
2022/08/25 09:50:31;;;;;;;2.83;0.40;;;;;;;35.31;40.32;94844.47;5094036;28;20243;-60
2022/08/25 09:53:16;;;;;;;23.60;1.00;;;;;;;34.92;37.14;94845.56;5093701;28;20200;-60
2022/08/25 09:55:56;;;;;;;14.27;1.30;;;;;;;34.24;40.44;94825.81;5093957;28;20189;-60
2022/08/25 09:58:27;;;;;;;2.63;0.97;;;;;;;34.68;36.03;94838.00;5093857;28;20714;-60
2022/08/25 10:01:05;;;;;;;0.40;0.30;;;;;;;35.45;38.08;94829.47;5093828;28;20273;-60
2022/08/25 10:03:34;;;;;;;2.20;0.70;;;;;;;34.64;40.37;94843.59;5093260;28;20554;-60
2022/08/25 10:06:10;;;;;;;1.07;1.03;;;;;;;34.23;38.64;94829.78;5093657;28;20190;-61
2022/08/25 10:08:56;;;;;;;2.93;0.90;;;;;;;33.88;43.09;94834.16;5093721;28;20178;-60
2022/08/25 10:11:38;;;;;;;2.43;2.33;;;;;;;32.76;41.27;94826.44;5093159;28;20221;-60
2022/08/25 10:14:17;;;;;;;5.60;2.03;;;;;;;31.83;42.20;94837.50;5093354;28;20297;-60
2022/08/25 10:16:47;;;;;;;1.13;1.13;;;;;;;32.26;44.79;94830.09;5093120;28;20455;-61
2022/08/25 10:19:25;;;;;;;0.70;0.60;;;;;;;31.89;43.05;94827.59;5092997;28;20553;-60
2022/08/25 10:22:05;;;;;;;0.40;0.40;;;;;;;31.76;45.51;94834.88;5093421;28;20459;-60
2022/08/25 10:24:40;;;;;;;0.87;0.87;;;;;;;31.64;47.79;94825.28;5093299;28;20510;-60
2022/08/25 10:27:22;;;;;;;0.60;0.40;;;;;;;32.05;48.63;94827.75;5093106;28;20431;-61
2022/08/25 10:30:03;;;;;;;0.70;0.53;;;;;;;32.07;46.17;94835.56;5093264;28;20860;-61
2022/08/25 10:32:41;;;;;;;0.30;0.20;;;;;;;32.40;47.96;94824.38;5092816;28;20927;-61
2022/08/25 10:35:13;;;;;;;15.47;0.97;;;;;;;32.29;43.92;94826.53;5092698;28;20476;-61
2022/08/25 10:37:52;;;;;;;0.47;0.47;;;;;;;32.28;45.28;94826.97;5092785;28;20422;-61
2022/08/25 10:40:28;;;;;;;8.63;2.30;;;;;;;31.35;47.08;94813.16;5092833;28;20987;-62
2022/08/25 10:43:06;;;;;;;0.70;0.40;;;;;;;31.92;46.44;94815.81;5092799;28;20956;-67
2022/08/25 10:45:43;;;;;;;0.57;0.57;;;;;;;31.91;46.14;94814.25;5093107;28;20485;-64
2022/08/25 10:48:42;;;;;;;10.43;1.77;;;;;;;31.85;48.03;94810.47;5093116;28;20899;-60
2022/08/25 10:51:43;;;;;;;7.20;0.57;;;;;;;31.87;45.73;94800.63;5093037;28;20473;-61
2022/08/25 10:54:24;;;;;;;1.23;0.50;;;;;;;31.60;46.36;94799.13;5092779;28;20517;-61
2022/08/25 10:57:01;;;;;;;2.93;0.40;;;;;;;32.46;47.34;94805.47;5092364;28;20448;-62
2022/08/25 10:59:50;;;;;;;2.43;1.53;;;;;;;32.83;46.64;94796.88;5092390;28;20468;-63
2022/08/25 11:02:59;;;;;;;1.67;0.60;;;;;;;32.31;42.00;94758.31;5092663;28;20479;-63
2022/08/25 11:05:35;;;;;;;2.63;1.43;;;;;;;32.70;48.05;94795.19;5071624;28;20493;-62
2022/08/25 11:08:09;;;;;;;0.50;0.40;;;;;;;32.47;47.81;94794.06;5092263;28;20434;-61
2022/08/25 11:10:47;;;;;;;2.13;0.60;;;;;;;32.01;46.42;94792.16;5092185;28;20934;-62
2022/08/25 11:13:25;;;;;;;0.50;0.30;;;;;;;31.77;44.54;94789.84;5091853;28;20471;-62
2022/08/25 11:15:59;;;;;;;0.40;0.37;;;;;;;31.69;46.90;94771.97;5091732;28;20598;-64
2022/08/25 11:18:51;;;;;;;2.73;0.50;;;;;;;31.68;48.42;94746.53;5091651;28;20482;-61
2022/08/25 11:21:25;;;;;;;5.30;0.43;;;;;;;32.03;46.08;94784.28;5092181;28;20505;-62
2022/08/25 11:24:04;;;;;;;0.40;0.30;;;;;;;32.58;46.20;94785.63;5092236;28;20456;-62
2022/08/25 11:26:37;;;;;;;0.43;0.30;;;;;;;32.75;40.90;94781.75;5091912;28;20511;-61
2022/08/25 11:29:15;;;;;;;4.30;1.23;;;;;;;32.79;44.26;94787.19;5092292;28;20944;-62
2022/08/25 11:31:53;;;;;;;1.90;1.80;;;;;;;32.82;40.93;94781.59;5091919;28;20514;-63
2022/08/25 11:34:23;;;;;;;1.83;1.13;;;;;;;33.14;38.64;94737.00;5091793;28;20492;-63
2022/08/25 11:36:59;;;;;;;0.40;0.40;;;;;;;33.54;40.04;94776.84;5090693;28;20523;-62
2022/08/25 11:39:45;;;;;;;2.50;0.50;;;;;;;32.88;41.07;94779.13;5090643;28;20434;-63
2022/08/25 11:42:26;;;;;;;2.10;1.03;;;;;;;32.96;40.27;94770.31;5091157;28;20432;-62
2022/08/25 11:45:08;;;;;;;2.27;1.03;;;;;;;33.34;43.39;94776.16;5090720;28;20529;-62
2022/08/25 11:47:51;;;;;;;0.40;0.40;;;;;;;33.41;41.11;94767.75;5090099;28;20463;-63
2022/08/25 11:50:32;;;;;;;6.73;0.30;;;;;;;33.20;43.55;94760.75;5090973;28;20427;-62
2022/08/25 11:53:19;;;;;;;2.70;1.33;;;;;;;32.71;45.60;94752.84;5091673;28;20412;-67
2022/08/25 11:55:57;;;;;;;3.23;0.60;;;;;;;32.84;43.26;94761.97;5091633;28;20536;-67
2022/08/25 11:58:39;;;;;;;0.80;0.80;;;;;;;32.29;42.34;94763.44;5091974;28;20514;-67
2022/08/25 12:01:26;;;;;;;2.13;0.60;;;;;;;31.86;43.57;94759.91;5091761;28;20458;-67
2022/08/25 12:04:13;;;;;;;0.80;0.80;;;;;;;32.02;45.93;94765.53;5049057;28;20434;-66